sensor_id;sensor_type;location;lat;lon;timestamp;temperature;humidity
70986;DHT22;58645;43.068;25.610;2022-07-29T00:08:10;20.40;99.90
70986;DHT22;58645;43.068;25.610;2022-07-29T00:10:36;20.40;99.90
70986;DHT22;58645;43.068;25.610;2022-07-29T00:19:58;20.20;99.90
70986;DHT22;58645;43.068;25.610;2022-07-29T00:22:23;20.20;99.90
70986;DHT22;58645;43.068;25.610;2022-07-29T00:24:49;20.20;99.90
70986;DHT22;58645;43.068;25.610;2022-07-29T00:27:16;20.20;99.90
70986;DHT22;58645;43.068;25.610;2022-07-29T01:08:23;19.70;99.90
70986;DHT22;58645;43.068;25.610;2022-07-29T01:10:49;19.60;99.90
70986;DHT22;58645;43.068;25.610;2022-07-29T01:13:16;19.50;99.90
70986;DHT22;58645;43.068;25.610;2022-07-29T01:15:56;19.50;99.90
70986;DHT22;58645;43.068;25.610;2022-07-29T01:18:34;19.50;99.90
70986;DHT22;58645;43.068;25.610;2022-07-29T01:24:20;19.50;99.90
70986;DHT22;58645;43.068;25.610;2022-07-29T01:26:59;19.50;99.90
70986;DHT22;58645;43.068;25.610;2022-07-29T01:29:54;19.50;99.90
70986;DHT22;58645;43.068;25.610;2022-07-29T01:32:25;19.50;99.90
70986;DHT22;58645;43.068;25.610;2022-07-29T01:35:15;19.30;99.90
70986;DHT22;58645;43.068;25.610;2022-07-29T01:38:00;19.20;99.90
70986;DHT22;58645;43.068;25.610;2022-07-29T01:43:06;19.10;99.90
70986;DHT22;58645;43.068;25.610;2022-07-29T01:45:46;19.00;99.90
70986;DHT22;58645;43.068;25.610;2022-07-29T01:48:18;19.00;99.90
70986;DHT22;58645;43.068;25.610;2022-07-29T01:50:52;19.00;99.90
70986;DHT22;58645;43.068;25.610;2022-07-29T01:53:44;18.90;99.90
70986;DHT22;58645;43.068;25.610;2022-07-29T01:56:12;18.80;99.90
70986;DHT22;58645;43.068;25.610;2022-07-29T01:58:41;18.80;99.90
70986;DHT22;58645;43.068;25.610;2022-07-29T02:01:09;18.70;99.90
70986;DHT22;58645;43.068;25.610;2022-07-29T02:03:37;18.70;99.90
70986;DHT22;58645;43.068;25.610;2022-07-29T02:06:05;18.70;99.90
70986;DHT22;58645;43.068;25.610;2022-07-29T02:08:33;18.80;99.90
70986;DHT22;58645;43.068;25.610;2022-07-29T02:11:00;18.80;99.90
70986;DHT22;58645;43.068;25.610;2022-07-29T02:13:28;18.80;99.90
70986;DHT22;58645;43.068;25.610;2022-07-29T02:15:57;18.80;99.90
70986;DHT22;58645;43.068;25.610;2022-07-29T02:18:24;18.80;99.90
70986;DHT22;58645;43.068;25.610;2022-07-29T02:20:54;18.90;99.90
70986;DHT22;58645;43.068;25.610;2022-07-29T02:23:23;18.90;99.90
70986;DHT22;58645;43.068;25.610;2022-07-29T02:25:55;19.00;99.90
70986;DHT22;58645;43.068;25.610;2022-07-29T02:28:24;19.00;99.90
70986;DHT22;58645;43.068;25.610;2022-07-29T02:30:52;19.00;99.90
70986;DHT22;58645;43.068;25.610;2022-07-29T02:33:19;19.00;99.90
70986;DHT22;58645;43.068;25.610;2022-07-29T02:35:47;19.00;99.90
70986;DHT22;58645;43.068;25.610;2022-07-29T02:38:15;19.00;99.90
70986;DHT22;58645;43.068;25.610;2022-07-29T02:41:08;19.10;99.90
70986;DHT22;58645;43.068;25.610;2022-07-29T02:43:34;19.10;99.90
70986;DHT22;58645;43.068;25.610;2022-07-29T02:46:03;19.10;99.90
70986;DHT22;58645;43.068;25.610;2022-07-29T02:49:09;19.10;99.90
70986;DHT22;58645;43.068;25.610;2022-07-29T02:51:43;19.10;99.90
70986;DHT22;58645;43.068;25.610;2022-07-29T02:54:11;19.00;99.90
70986;DHT22;58645;43.068;25.610;2022-07-29T02:56:41;19.00;99.90
70986;DHT22;58645;43.068;25.610;2022-07-29T02:59:10;19.00;99.90
70986;DHT22;58645;43.068;25.610;2022-07-29T03:01:40;19.00;99.90
70986;DHT22;58645;43.068;25.610;2022-07-29T03:04:09;18.90;99.90
70986;DHT22;58645;43.068;25.610;2022-07-29T03:06:36;18.90;99.90
70986;DHT22;58645;43.068;25.610;2022-07-29T03:09:03;18.80;99.90
70986;DHT22;58645;43.068;25.610;2022-07-29T03:11:30;18.70;99.90
70986;DHT22;58645;43.068;25.610;2022-07-29T03:13:56;18.70;99.90
70986;DHT22;58645;43.068;25.610;2022-07-29T03:16:22;18.70;99.90
70986;DHT22;58645;43.068;25.610;2022-07-29T03:18:49;18.70;99.90
70986;DHT22;58645;43.068;25.610;2022-07-29T03:21:16;18.70;99.90
70986;DHT22;58645;43.068;25.610;2022-07-29T03:23:45;18.70;99.90
70986;DHT22;58645;43.068;25.610;2022-07-29T03:26:11;18.70;99.90
70986;DHT22;58645;43.068;25.610;2022-07-29T03:28:37;18.70;99.90
70986;DHT22;58645;43.068;25.610;2022-07-29T03:31:03;18.70;99.90
70986;DHT22;58645;43.068;25.610;2022-07-29T03:33:29;18.70;99.90
70986;DHT22;58645;43.068;25.610;2022-07-29T03:35:56;18.70;99.90
70986;DHT22;58645;43.068;25.610;2022-07-29T03:38:24;18.70;99.90
70986;DHT22;58645;43.068;25.610;2022-07-29T03:41:06;18.60;99.90
70986;DHT22;58645;43.068;25.610;2022-07-29T03:43:37;18.60;99.90
70986;DHT22;58645;43.068;25.610;2022-07-29T03:46:06;18.60;99.90
70986;DHT22;58645;43.068;25.610;2022-07-29T03:48:34;18.50;99.90
70986;DHT22;58645;43.068;25.610;2022-07-29T03:51:02;18.50;99.90
70986;DHT22;58645;43.068;25.610;2022-07-29T03:53:28;18.50;99.90
70986;DHT22;58645;43.068;25.610;2022-07-29T03:55:57;18.60;99.90
70986;DHT22;58645;43.068;25.610;2022-07-29T03:58:26;18.60;99.90
70986;DHT22;58645;43.068;25.610;2022-07-29T04:00:54;18.60;99.90
70986;DHT22;58645;43.068;25.610;2022-07-29T04:03:20;18.60;99.90
70986;DHT22;58645;43.068;25.610;2022-07-29T04:05:58;18.70;99.90
70986;DHT22;58645;43.068;25.610;2022-07-29T04:08:27;18.70;99.90
70986;DHT22;58645;43.068;25.610;2022-07-29T04:10:53;18.70;99.90
70986;DHT22;58645;43.068;25.610;2022-07-29T04:13:19;18.70;99.90
70986;DHT22;58645;43.068;25.610;2022-07-29T04:15:45;18.70;99.90
70986;DHT22;58645;43.068;25.610;2022-07-29T04:18:11;18.80;99.90
70986;DHT22;58645;43.068;25.610;2022-07-29T04:20:37;18.80;99.90
70986;DHT22;58645;43.068;25.610;2022-07-29T04:23:03;18.90;99.90
70986;DHT22;58645;43.068;25.610;2022-07-29T04:25:28;18.90;99.90
70986;DHT22;58645;43.068;25.610;2022-07-29T04:27:54;19.10;99.90
70986;DHT22;58645;43.068;25.610;2022-07-29T04:30:26;19.30;99.90
70986;DHT22;58645;43.068;25.610;2022-07-29T04:32:52;19.50;99.90
70986;DHT22;58645;43.068;25.610;2022-07-29T04:35:19;19.70;99.90
70986;DHT22;58645;43.068;25.610;2022-07-29T04:37:45;19.80;99.90
70986;DHT22;58645;43.068;25.610;2022-07-29T04:40:11;20.00;99.90
70986;DHT22;58645;43.068;25.610;2022-07-29T04:42:38;20.10;99.90
70986;DHT22;58645;43.068;25.610;2022-07-29T04:45:04;20.30;99.90
70986;DHT22;58645;43.068;25.610;2022-07-29T04:47:30;20.50;99.90
70986;DHT22;58645;43.068;25.610;2022-07-29T04:49:56;20.60;99.90
70986;DHT22;58645;43.068;25.610;2022-07-29T04:52:22;20.60;99.90
70986;DHT22;58645;43.068;25.610;2022-07-29T04:54:48;20.80;99.90
70986;DHT22;58645;43.068;25.610;2022-07-29T04:57:14;20.80;99.90
70986;DHT22;58645;43.068;25.610;2022-07-29T04:59:40;21.00;99.90
70986;DHT22;58645;43.068;25.610;2022-07-29T05:02:06;21.00;99.90
70986;DHT22;58645;43.068;25.610;2022-07-29T05:04:31;21.20;99.90
70986;DHT22;58645;43.068;25.610;2022-07-29T05:06:57;21.40;99.90
70986;DHT22;58645;43.068;25.610;2022-07-29T05:09:23;21.50;99.40
70986;DHT22;58645;43.068;25.610;2022-07-29T05:11:49;21.60;99.30
70986;DHT22;58645;43.068;25.610;2022-07-29T05:14:14;21.80;98.20
70986;DHT22;58645;43.068;25.610;2022-07-29T05:16:40;21.90;98.30
70986;DHT22;58645;43.068;25.610;2022-07-29T05:19:07;22.00;96.60
70986;DHT22;58645;43.068;25.610;2022-07-29T05:21:33;22.00;94.90
70986;DHT22;58645;43.068;25.610;2022-07-29T05:23:58;22.10;94.00
70986;DHT22;58645;43.068;25.610;2022-07-29T05:26:24;22.50;91.00
70986;DHT22;58645;43.068;25.610;2022-07-29T05:28:50;22.70;90.60
70986;DHT22;58645;43.068;25.610;2022-07-29T05:31:16;22.60;88.50
70986;DHT22;58645;43.068;25.610;2022-07-29T05:33:42;22.70;88.20
70986;DHT22;58645;43.068;25.610;2022-07-29T05:36:08;23.00;87.90
70986;DHT22;58645;43.068;25.610;2022-07-29T05:38:34;23.10;86.40
70986;DHT22;58645;43.068;25.610;2022-07-29T05:41:00;23.20;86.40
70986;DHT22;58645;43.068;25.610;2022-07-29T05:43:29;23.40;85.80
70986;DHT22;58645;43.068;25.610;2022-07-29T05:45:55;23.80;84.90
70986;DHT22;58645;43.068;25.610;2022-07-29T05:48:22;24.10;83.20
70986;DHT22;58645;43.068;25.610;2022-07-29T05:50:47;24.30;82.30
70986;DHT22;58645;43.068;25.610;2022-07-29T05:53:13;24.50;81.00
70986;DHT22;58645;43.068;25.610;2022-07-29T05:55:39;24.80;81.10
70986;DHT22;58645;43.068;25.610;2022-07-29T05:58:05;25.10;81.10
70986;DHT22;58645;43.068;25.610;2022-07-29T06:00:30;25.50;78.90
70986;DHT22;58645;43.068;25.610;2022-07-29T06:02:56;25.80;77.00
70986;DHT22;58645;43.068;25.610;2022-07-29T06:05:22;26.00;76.30
70986;DHT22;58645;43.068;25.610;2022-07-29T06:07:48;26.40;73.90
70986;DHT22;58645;43.068;25.610;2022-07-29T06:10:14;26.80;72.00
70986;DHT22;58645;43.068;25.610;2022-07-29T06:12:40;27.30;70.70
70986;DHT22;58645;43.068;25.610;2022-07-29T06:15:06;27.80;66.10
70986;DHT22;58645;43.068;25.610;2022-07-29T06:17:32;28.30;65.40
70986;DHT22;58645;43.068;25.610;2022-07-29T06:19:57;28.80;62.70
70986;DHT22;58645;43.068;25.610;2022-07-29T06:22:23;28.80;61.50
70986;DHT22;58645;43.068;25.610;2022-07-29T06:24:49;29.30;60.00
70986;DHT22;58645;43.068;25.610;2022-07-29T06:27:15;29.80;58.30
70986;DHT22;58645;43.068;25.610;2022-07-29T06:29:41;30.00;56.30
70986;DHT22;58645;43.068;25.610;2022-07-29T06:32:07;30.40;55.00
70986;DHT22;58645;43.068;25.610;2022-07-29T06:34:35;30.70;53.50
70986;DHT22;58645;43.068;25.610;2022-07-29T06:37:06;31.00;52.30
70986;DHT22;58645;43.068;25.610;2022-07-29T06:39:34;31.10;52.00
70986;DHT22;58645;43.068;25.610;2022-07-29T06:42:00;31.50;50.90
70986;DHT22;58645;43.068;25.610;2022-07-29T06:44:26;31.90;47.60
70986;DHT22;58645;43.068;25.610;2022-07-29T06:46:52;32.00;47.30
70986;DHT22;58645;43.068;25.610;2022-07-29T06:49:20;32.00;47.60
70986;DHT22;58645;43.068;25.610;2022-07-29T06:51:45;32.20;47.10
70986;DHT22;58645;43.068;25.610;2022-07-29T06:54:12;32.30;45.70
70986;DHT22;58645;43.068;25.610;2022-07-29T06:56:37;32.50;43.60
70986;DHT22;58645;43.068;25.610;2022-07-29T06:59:04;32.60;42.40
70986;DHT22;58645;43.068;25.610;2022-07-29T07:01:30;32.70;41.80
70986;DHT22;58645;43.068;25.610;2022-07-29T07:03:56;32.90;41.20
70986;DHT22;58645;43.068;25.610;2022-07-29T07:06:22;33.20;42.60
70986;DHT22;58645;43.068;25.610;2022-07-29T07:08:50;33.30;41.20
70986;DHT22;58645;43.068;25.610;2022-07-29T07:11:16;33.30;40.70
70986;DHT22;58645;43.068;25.610;2022-07-29T07:13:42;33.60;40.00
70986;DHT22;58645;43.068;25.610;2022-07-29T07:16:08;33.70;39.90
70986;DHT22;58645;43.068;25.610;2022-07-29T07:18:33;34.20;39.60
70986;DHT22;58645;43.068;25.610;2022-07-29T07:20:59;34.50;39.20
70986;DHT22;58645;43.068;25.610;2022-07-29T07:23:25;34.50;38.20
70986;DHT22;58645;43.068;25.610;2022-07-29T07:25:51;34.60;37.70
70986;DHT22;58645;43.068;25.610;2022-07-29T07:28:17;34.90;36.70
70986;DHT22;58645;43.068;25.610;2022-07-29T07:30:42;35.00;36.50
70986;DHT22;58645;43.068;25.610;2022-07-29T07:33:09;35.30;36.90
70986;DHT22;58645;43.068;25.610;2022-07-29T07:35:34;35.20;35.40
70986;DHT22;58645;43.068;25.610;2022-07-29T07:38:00;35.00;34.50
70986;DHT22;58645;43.068;25.610;2022-07-29T07:40:26;35.30;34.10
70986;DHT22;58645;43.068;25.610;2022-07-29T07:42:52;35.90;32.50
70986;DHT22;58645;43.068;25.610;2022-07-29T07:45:18;35.80;31.10
70986;DHT22;58645;43.068;25.610;2022-07-29T07:47:43;35.80;31.80
70986;DHT22;58645;43.068;25.610;2022-07-29T07:50:10;36.20;29.40
70986;DHT22;58645;43.068;25.610;2022-07-29T07:52:55;36.70;26.60
70986;DHT22;58645;43.068;25.610;2022-07-29T07:55:23;36.90;25.40
70986;DHT22;58645;43.068;25.610;2022-07-29T07:57:49;37.10;26.00
70986;DHT22;58645;43.068;25.610;2022-07-29T08:00:16;37.10;26.40
70986;DHT22;58645;43.068;25.610;2022-07-29T08:02:42;37.20;27.10
70986;DHT22;58645;43.068;25.610;2022-07-29T08:05:09;37.00;26.70
70986;DHT22;58645;43.068;25.610;2022-07-29T08:07:35;37.40;25.20
70986;DHT22;58645;43.068;25.610;2022-07-29T08:10:01;37.60;25.20
70986;DHT22;58645;43.068;25.610;2022-07-29T08:12:27;38.00;24.40
70986;DHT22;58645;43.068;25.610;2022-07-29T08:14:53;38.00;25.20
70986;DHT22;58645;43.068;25.610;2022-07-29T08:17:19;38.40;25.10
70986;DHT22;58645;43.068;25.610;2022-07-29T08:19:45;38.70;25.60
70986;DHT22;58645;43.068;25.610;2022-07-29T08:22:11;38.80;23.40
70986;DHT22;58645;43.068;25.610;2022-07-29T08:24:37;38.70;24.50
70986;DHT22;58645;43.068;25.610;2022-07-29T08:27:09;38.90;24.40
70986;DHT22;58645;43.068;25.610;2022-07-29T08:29:36;38.80;24.60
70986;DHT22;58645;43.068;25.610;2022-07-29T08:32:02;38.70;24.30
70986;DHT22;58645;43.068;25.610;2022-07-29T08:34:28;38.70;24.40
70986;DHT22;58645;43.068;25.610;2022-07-29T08:36:54;38.70;24.10
70986;DHT22;58645;43.068;25.610;2022-07-29T08:39:21;38.70;23.60
70986;DHT22;58645;43.068;25.610;2022-07-29T08:41:47;38.30;24.20
70986;DHT22;58645;43.068;25.610;2022-07-29T08:44:16;38.20;26.00
70986;DHT22;58645;43.068;25.610;2022-07-29T08:46:42;38.50;24.00
70986;DHT22;58645;43.068;25.610;2022-07-29T08:49:08;38.50;22.90
70986;DHT22;58645;43.068;25.610;2022-07-29T08:51:36;39.00;22.20
70986;DHT22;58645;43.068;25.610;2022-07-29T08:54:04;38.90;22.10
70986;DHT22;58645;43.068;25.610;2022-07-29T08:56:30;38.90;22.90
70986;DHT22;58645;43.068;25.610;2022-07-29T08:58:58;39.50;22.20
70986;DHT22;58645;43.068;25.610;2022-07-29T09:01:27;39.30;22.10
70986;DHT22;58645;43.068;25.610;2022-07-29T09:03:56;39.40;20.80
70986;DHT22;58645;43.068;25.610;2022-07-29T09:06:23;39.60;20.90
70986;DHT22;58645;43.068;25.610;2022-07-29T09:08:54;39.70;20.70
70986;DHT22;58645;43.068;25.610;2022-07-29T09:11:22;40.10;21.50
70986;DHT22;58645;43.068;25.610;2022-07-29T09:13:48;40.00;21.50
70986;DHT22;58645;43.068;25.610;2022-07-29T09:16:15;40.20;21.60
70986;DHT22;58645;43.068;25.610;2022-07-29T09:18:45;40.50;20.00
70986;DHT22;58645;43.068;25.610;2022-07-29T09:21:15;39.60;18.70
70986;DHT22;58645;43.068;25.610;2022-07-29T09:24:10;39.80;20.50
70986;DHT22;58645;43.068;25.610;2022-07-29T09:26:44;39.70;19.90
70986;DHT22;58645;43.068;25.610;2022-07-29T09:29:15;40.00;20.40
70986;DHT22;58645;43.068;25.610;2022-07-29T09:31:45;40.00;20.60
70986;DHT22;58645;43.068;25.610;2022-07-29T09:34:14;40.30;20.60
70986;DHT22;58645;43.068;25.610;2022-07-29T09:36:40;40.60;19.30
70986;DHT22;58645;43.068;25.610;2022-07-29T09:39:06;40.80;21.00
70986;DHT22;58645;43.068;25.610;2022-07-29T09:41:48;40.10;20.20
70986;DHT22;58645;43.068;25.610;2022-07-29T09:44:15;39.80;19.20
70986;DHT22;58645;43.068;25.610;2022-07-29T09:49:23;39.80;19.70
70986;DHT22;58645;43.068;25.610;2022-07-29T09:52:00;40.20;19.80
70986;DHT22;58645;43.068;25.610;2022-07-29T09:54:26;40.20;19.90
70986;DHT22;58645;43.068;25.610;2022-07-29T09:56:54;40.30;19.50
70986;DHT22;58645;43.068;25.610;2022-07-29T09:59:20;40.60;19.60
70986;DHT22;58645;43.068;25.610;2022-07-29T10:01:49;40.00;19.50
70986;DHT22;58645;43.068;25.610;2022-07-29T10:04:16;40.20;18.90
70986;DHT22;58645;43.068;25.610;2022-07-29T10:07:01;40.30;19.60
70986;DHT22;58645;43.068;25.610;2022-07-29T10:09:28;40.00;19.60
70986;DHT22;58645;43.068;25.610;2022-07-29T10:12:11;40.20;20.40
70986;DHT22;58645;43.068;25.610;2022-07-29T10:14:39;40.20;20.10
70986;DHT22;58645;43.068;25.610;2022-07-29T10:17:06;40.30;19.70
70986;DHT22;58645;43.068;25.610;2022-07-29T10:19:34;40.60;19.70
70986;DHT22;58645;43.068;25.610;2022-07-29T10:22:04;40.70;19.60
70986;DHT22;58645;43.068;25.610;2022-07-29T10:24:31;41.00;19.70
70986;DHT22;58645;43.068;25.610;2022-07-29T10:27:00;41.30;20.20
70986;DHT22;58645;43.068;25.610;2022-07-29T10:29:27;41.50;18.90
70986;DHT22;58645;43.068;25.610;2022-07-29T10:32:14;41.40;18.70
70986;DHT22;58645;43.068;25.610;2022-07-29T10:34:51;41.40;17.80
70986;DHT22;58645;43.068;25.610;2022-07-29T10:37:32;41.60;18.50
70986;DHT22;58645;43.068;25.610;2022-07-29T10:40:45;41.50;17.60
70986;DHT22;58645;43.068;25.610;2022-07-29T10:43:38;41.60;17.80
70986;DHT22;58645;43.068;25.610;2022-07-29T10:46:06;41.50;19.20
70986;DHT22;58645;43.068;25.610;2022-07-29T10:48:32;41.40;19.10
70986;DHT22;58645;43.068;25.610;2022-07-29T10:51:03;41.00;20.00
70986;DHT22;58645;43.068;25.610;2022-07-29T10:56:30;41.40;18.20
70986;DHT22;58645;43.068;25.610;2022-07-29T10:59:25;40.70;19.50
70986;DHT22;58645;43.068;25.610;2022-07-29T11:01:52;40.40;19.00
70986;DHT22;58645;43.068;25.610;2022-07-29T11:05:19;40.60;18.60
70986;DHT22;58645;43.068;25.610;2022-07-29T11:07:27;40.80;18.60
70986;DHT22;58645;43.068;25.610;2022-07-29T11:15:13;41.10;18.90
70986;DHT22;58645;43.068;25.610;2022-07-29T11:23:25;40.90;18.90
70986;DHT22;58645;43.068;25.610;2022-07-29T11:31:31;40.60;19.30
70986;DHT22;58645;43.068;25.610;2022-07-29T11:39:43;40.90;19.70
70986;DHT22;58645;43.068;25.610;2022-07-29T11:45:14;40.90;18.90
70986;DHT22;58645;43.068;25.610;2022-07-29T11:50:33;40.10;19.60
70986;DHT22;58645;43.068;25.610;2022-07-29T11:52:59;40.00;20.40
70986;DHT22;58645;43.068;25.610;2022-07-29T11:55:26;40.20;20.10
70986;DHT22;58645;43.068;25.610;2022-07-29T11:57:58;39.70;20.60
70986;DHT22;58645;43.068;25.610;2022-07-29T12:00:29;39.60;20.40
70986;DHT22;58645;43.068;25.610;2022-07-29T12:02:57;39.60;21.50
70986;DHT22;58645;43.068;25.610;2022-07-29T12:10:38;39.30;23.70
70986;DHT22;58645;43.068;25.610;2022-07-29T12:13:04;39.30;22.40
70986;DHT22;58645;43.068;25.610;2022-07-29T12:15:30;39.10;23.60
70986;DHT22;58645;43.068;25.610;2022-07-29T12:17:56;39.40;23.10
70986;DHT22;58645;43.068;25.610;2022-07-29T12:20:27;39.80;22.50
70986;DHT22;58645;43.068;25.610;2022-07-29T12:22:53;39.60;22.00
70986;DHT22;58645;43.068;25.610;2022-07-29T12:25:21;39.60;22.40
70986;DHT22;58645;43.068;25.610;2022-07-29T12:27:57;38.90;22.40
70986;DHT22;58645;43.068;25.610;2022-07-29T12:30:22;38.20;24.00
70986;DHT22;58645;43.068;25.610;2022-07-29T12:32:48;37.50;25.10
70986;DHT22;58645;43.068;25.610;2022-07-29T12:35:16;37.60;25.30
70986;DHT22;58645;43.068;25.610;2022-07-29T12:37:45;37.60;25.10
70986;DHT22;58645;43.068;25.610;2022-07-29T12:40:15;37.60;24.90
70986;DHT22;58645;43.068;25.610;2022-07-29T12:45:38;38.20;25.00
70986;DHT22;58645;43.068;25.610;2022-07-29T12:48:05;38.10;24.00
70986;DHT22;58645;43.068;25.610;2022-07-29T12:50:34;37.80;24.20
70986;DHT22;58645;43.068;25.610;2022-07-29T12:53:11;37.90;24.40
70986;DHT22;58645;43.068;25.610;2022-07-29T12:55:42;38.10;24.70
70986;DHT22;58645;43.068;25.610;2022-07-29T12:58:09;37.50;25.80
70986;DHT22;58645;43.068;25.610;2022-07-29T13:00:34;37.60;25.90
70986;DHT22;58645;43.068;25.610;2022-07-29T13:03:00;37.20;25.60
70986;DHT22;58645;43.068;25.610;2022-07-29T13:05:43;36.80;26.00
70986;DHT22;58645;43.068;25.610;2022-07-29T13:08:14;36.50;26.80
70986;DHT22;58645;43.068;25.610;2022-07-29T13:10:40;36.50;26.90
70986;DHT22;58645;43.068;25.610;2022-07-29T13:13:14;36.40;26.80
70986;DHT22;58645;43.068;25.610;2022-07-29T13:15:41;36.60;27.20
70986;DHT22;58645;43.068;25.610;2022-07-29T13:18:27;36.80;26.20
70986;DHT22;58645;43.068;25.610;2022-07-29T13:20:54;36.70;26.50
70986;DHT22;58645;43.068;25.610;2022-07-29T13:23:20;36.90;25.20
70986;DHT22;58645;43.068;25.610;2022-07-29T13:25:45;36.50;25.30
70986;DHT22;58645;43.068;25.610;2022-07-29T13:28:11;36.30;26.00
70986;DHT22;58645;43.068;25.610;2022-07-29T13:30:39;36.20;25.90
70986;DHT22;58645;43.068;25.610;2022-07-29T13:33:04;36.10;26.00
70986;DHT22;58645;43.068;25.610;2022-07-29T13:35:30;36.10;25.50
70986;DHT22;58645;43.068;25.610;2022-07-29T13:37:56;36.20;26.30
70986;DHT22;58645;43.068;25.610;2022-07-29T13:40:22;36.20;26.30
70986;DHT22;58645;43.068;25.610;2022-07-29T13:42:48;36.20;26.20
70986;DHT22;58645;43.068;25.610;2022-07-29T13:45:13;36.00;26.10
70986;DHT22;58645;43.068;25.610;2022-07-29T13:47:39;35.60;26.80
70986;DHT22;58645;43.068;25.610;2022-07-29T13:50:07;35.50;27.20
70986;DHT22;58645;43.068;25.610;2022-07-29T13:52:35;35.30;27.50
70986;DHT22;58645;43.068;25.610;2022-07-29T13:55:02;35.30;28.20
70986;DHT22;58645;43.068;25.610;2022-07-29T13:57:28;35.30;27.60
70986;DHT22;58645;43.068;25.610;2022-07-29T13:59:54;35.30;27.60
70986;DHT22;58645;43.068;25.610;2022-07-29T14:02:20;35.20;27.90
70986;DHT22;58645;43.068;25.610;2022-07-29T14:04:46;35.00;28.50
70986;DHT22;58645;43.068;25.610;2022-07-29T14:07:12;35.00;29.00
70986;DHT22;58645;43.068;25.610;2022-07-29T14:09:38;35.10;29.00
70986;DHT22;58645;43.068;25.610;2022-07-29T14:12:04;35.10;28.50
70986;DHT22;58645;43.068;25.610;2022-07-29T14:14:30;35.00;28.40
70986;DHT22;58645;43.068;25.610;2022-07-29T14:16:58;35.00;28.30
70986;DHT22;58645;43.068;25.610;2022-07-29T14:19:24;35.10;29.00
70986;DHT22;58645;43.068;25.610;2022-07-29T14:21:50;35.00;28.00
70986;DHT22;58645;43.068;25.610;2022-07-29T14:24:15;35.10;28.00
70986;DHT22;58645;43.068;25.610;2022-07-29T14:26:41;34.90;27.30
70986;DHT22;58645;43.068;25.610;2022-07-29T14:29:07;34.70;27.80
70986;DHT22;58645;43.068;25.610;2022-07-29T14:31:33;34.40;28.20
70986;DHT22;58645;43.068;25.610;2022-07-29T14:33:58;34.60;28.70
70986;DHT22;58645;43.068;25.610;2022-07-29T14:36:24;34.60;28.70
70986;DHT22;58645;43.068;25.610;2022-07-29T14:38:50;34.50;28.80
70986;DHT22;58645;43.068;25.610;2022-07-29T14:41:16;34.50;28.80
70986;DHT22;58645;43.068;25.610;2022-07-29T14:43:42;34.50;28.60
70986;DHT22;58645;43.068;25.610;2022-07-29T14:49:34;34.50;28.70
70986;DHT22;58645;43.068;25.610;2022-07-29T14:52:00;34.40;28.90
70986;DHT22;58645;43.068;25.610;2022-07-29T14:54:25;34.40;29.00
70986;DHT22;58645;43.068;25.610;2022-07-29T14:56:51;34.40;29.10
70986;DHT22;58645;43.068;25.610;2022-07-29T14:59:20;34.40;29.50
70986;DHT22;58645;43.068;25.610;2022-07-29T15:01:46;34.40;30.10
70986;DHT22;58645;43.068;25.610;2022-07-29T15:04:11;34.30;29.90
70986;DHT22;58645;43.068;25.610;2022-07-29T15:06:37;34.00;30.00
70986;DHT22;58645;43.068;25.610;2022-07-29T15:09:03;33.90;29.90
70986;DHT22;58645;43.068;25.610;2022-07-29T15:11:29;33.90;29.90
70986;DHT22;58645;43.068;25.610;2022-07-29T15:13:54;33.90;30.00
70986;DHT22;58645;43.068;25.610;2022-07-29T15:16:20;33.90;30.30
70986;DHT22;58645;43.068;25.610;2022-07-29T15:18:46;33.90;30.20
70986;DHT22;58645;43.068;25.610;2022-07-29T15:21:12;33.90;30.70
70986;DHT22;58645;43.068;25.610;2022-07-29T15:23:37;33.90;31.00
70986;DHT22;58645;43.068;25.610;2022-07-29T15:26:04;33.90;31.60
70986;DHT22;58645;43.068;25.610;2022-07-29T15:28:30;34.00;31.90
70986;DHT22;58645;43.068;25.610;2022-07-29T15:30:55;34.00;31.80
70986;DHT22;58645;43.068;25.610;2022-07-29T15:33:21;34.00;31.60
70986;DHT22;58645;43.068;25.610;2022-07-29T15:35:47;33.90;31.50
70986;DHT22;58645;43.068;25.610;2022-07-29T15:38:13;33.90;31.40
70986;DHT22;58645;43.068;25.610;2022-07-29T15:40:39;33.90;31.50
70986;DHT22;58645;43.068;25.610;2022-07-29T15:43:09;33.80;31.70
70986;DHT22;58645;43.068;25.610;2022-07-29T15:45:39;33.50;32.20
70986;DHT22;58645;43.068;25.610;2022-07-29T15:48:06;33.30;32.60
70986;DHT22;58645;43.068;25.610;2022-07-29T15:50:32;33.30;32.80
70986;DHT22;58645;43.068;25.610;2022-07-29T15:52:58;33.30;32.90
70986;DHT22;58645;43.068;25.610;2022-07-29T15:55:25;33.20;33.10
70986;DHT22;58645;43.068;25.610;2022-07-29T15:57:51;33.30;33.10
70986;DHT22;58645;43.068;25.610;2022-07-29T16:00:16;33.20;33.30
70986;DHT22;58645;43.068;25.610;2022-07-29T16:02:43;33.20;33.40
70986;DHT22;58645;43.068;25.610;2022-07-29T16:05:09;33.10;33.50
70986;DHT22;58645;43.068;25.610;2022-07-29T16:07:35;33.10;33.80
70986;DHT22;58645;43.068;25.610;2022-07-29T16:10:01;33.00;34.00
70986;DHT22;58645;43.068;25.610;2022-07-29T16:12:27;33.00;34.20
70986;DHT22;58645;43.068;25.610;2022-07-29T16:14:52;32.90;33.90
70986;DHT22;58645;43.068;25.610;2022-07-29T16:17:18;32.70;34.20
70986;DHT22;58645;43.068;25.610;2022-07-29T16:19:44;32.70;34.50
70986;DHT22;58645;43.068;25.610;2022-07-29T16:22:11;32.60;34.60
70986;DHT22;58645;43.068;25.610;2022-07-29T16:24:37;32.50;34.80
70986;DHT22;58645;43.068;25.610;2022-07-29T16:27:03;32.40;35.00
70986;DHT22;58645;43.068;25.610;2022-07-29T16:29:29;32.30;35.30
70986;DHT22;58645;43.068;25.610;2022-07-29T16:31:55;32.20;35.50
70986;DHT22;58645;43.068;25.610;2022-07-29T16:34:21;32.20;35.60
70986;DHT22;58645;43.068;25.610;2022-07-29T16:36:47;32.20;35.70
70986;DHT22;58645;43.068;25.610;2022-07-29T16:39:12;32.10;35.80
70986;DHT22;58645;43.068;25.610;2022-07-29T16:41:38;32.10;36.10
70986;DHT22;58645;43.068;25.610;2022-07-29T16:44:04;32.00;36.20
70986;DHT22;58645;43.068;25.610;2022-07-29T16:46:30;32.00;36.40
70986;DHT22;58645;43.068;25.610;2022-07-29T16:48:55;31.90;36.10
70986;DHT22;58645;43.068;25.610;2022-07-29T16:51:21;31.50;36.20
70986;DHT22;58645;43.068;25.610;2022-07-29T16:53:47;31.80;36.20
70986;DHT22;58645;43.068;25.610;2022-07-29T16:56:13;31.70;36.00
70986;DHT22;58645;43.068;25.610;2022-07-29T16:58:39;31.70;36.30
70986;DHT22;58645;43.068;25.610;2022-07-29T17:01:05;31.60;36.30
70986;DHT22;58645;43.068;25.610;2022-07-29T17:03:31;31.50;36.40
70986;DHT22;58645;43.068;25.610;2022-07-29T17:05:57;31.40;36.50